Time;durP1;ratioP1;P1;durP2;ratioP2;P2;SDS_P1;SDS_P2;PMS_P1;PMS_P2;Temp;Humidity;BMP_temperature;BMP_pressure;BME280_temperature;BME280_humidity;BME280_pressure;Samples;Min_cycle;Max_cycle;Signal;HPM_P1;HPM_P2
2021/05/12 00:00:27;;;;;;;3.40;3.10;;;;;;;8.82;100.00;95243.81;1042418;28;20036;-67
2021/05/12 00:00:57;;;;;;;3.92;3.63;;;;;;;8.88;100.00;95254.00;1051459;28;20039;-67
2021/05/12 00:01:28;;;;;;;5.43;4.07;;;;;;;8.89;100.00;95254.81;1051453;28;20020;-67
2021/05/12 00:01:58;;;;;;;3.97;3.42;;;;;;;8.87;100.00;95249.81;1051019;28;20044;-67
2021/05/12 00:02:28;;;;;;;4.05;3.70;;;;;;;8.88;100.00;95261.06;1047288;28;20037;-66
2021/05/12 00:02:59;;;;;;;3.05;2.85;;;;;;;8.88;100.00;95258.47;1047319;28;20102;-67
2021/05/12 00:03:29;;;;;;;4.47;3.95;;;;;;;8.89;100.00;95254.81;1050356;28;20035;-67
2021/05/12 00:04:00;;;;;;;4.28;3.88;;;;;;;8.88;100.00;95259.25;1043152;28;20037;-68
2021/05/12 00:04:31;;;;;;;4.28;3.85;;;;;;;8.83;100.00;95255.84;1039045;28;20033;-66
2021/05/12 00:05:01;;;;;;;3.95;3.38;;;;;;;8.82;100.00;95249.03;1038568;28;20026;-63
2021/05/12 00:05:32;;;;;;;5.15;3.72;;;;;;;8.86;100.00;95255.34;1042083;28;20048;-68
2021/05/12 00:06:03;;;;;;;3.83;3.53;;;;;;;8.86;100.00;95250.09;1043277;28;20037;-66
2021/05/12 00:06:33;;;;;;;4.07;3.45;;;;;;;8.86;100.00;95250.09;1047278;28;20028;-67
2021/05/12 00:07:03;;;;;;;3.50;3.20;;;;;;;8.86;100.00;95256.13;1046710;28;20086;-67
2021/05/12 00:07:34;;;;;;;4.10;3.70;;;;;;;8.85;100.00;95257.19;1043221;28;20024;-68
2021/05/12 00:08:04;;;;;;;3.40;3.10;;;;;;;8.84;100.00;95246.97;1047255;28;20040;-67
2021/05/12 00:08:35;;;;;;;4.00;3.63;;;;;;;8.84;100.00;95250.34;1043144;28;20024;-67
2021/05/12 00:09:05;;;;;;;5.95;3.95;;;;;;;8.87;100.00;95260.28;1034962;28;20081;-67
2021/05/12 00:09:36;;;;;;;4.13;3.67;;;;;;;8.85;100.00;95257.19;1034426;28;20566;-66
2021/05/12 00:10:08;;;;;;;5.25;3.33;;;;;;;8.86;100.00;95263.19;1033333;28;20030;-65
2021/05/12 00:10:39;;;;;;;3.88;3.55;;;;;;;8.83;100.00;95261.09;1043201;28;20517;-65
2021/05/12 00:11:09;;;;;;;3.50;3.20;;;;;;;8.83;100.00;95258.47;1047236;28;20314;-67
2021/05/12 00:11:39;;;;;;;3.95;3.63;;;;;;;8.79;100.00;95260.84;1042921;28;20111;-66
2021/05/12 00:12:10;;;;;;;4.13;3.40;;;;;;;8.87;100.00;95272.59;1038836;28;20079;-67
2021/05/12 00:12:43;;;;;;;4.28;3.88;;;;;;;8.79;100.00;95252.22;1039125;28;20029;-67
2021/05/12 00:13:14;;;;;;;4.45;3.97;;;;;;;8.80;100.00;95261.63;1042966;28;20275;-65
2021/05/12 00:13:44;;;;;;;4.28;3.95;;;;;;;8.85;100.00;95262.41;1039692;28;20101;-66
2021/05/12 00:14:15;;;;;;;6.18;4.43;;;;;;;8.85;100.00;95265.03;1043217;28;20017;-66
2021/05/12 00:14:45;;;;;;;4.57;4.18;;;;;;;8.86;100.00;95260.56;1042860;28;20028;-66
2021/05/12 00:15:18;;;;;;;4.47;3.92;;;;;;;8.81;100.00;95257.94;1034346;28;20495;-67
2021/05/12 00:15:48;;;;;;;5.97;4.70;;;;;;;8.86;100.00;95263.19;1043169;28;20021;-68
2021/05/12 00:16:18;;;;;;;5.03;4.57;;;;;;;8.85;100.00;95259.78;1042396;28;20267;-67
2021/05/12 00:16:49;;;;;;;3.85;3.55;;;;;;;8.82;100.00;95262.94;1043206;28;20028;-67
2021/05/12 00:17:20;;;;;;;5.35;4.13;;;;;;;8.83;100.00;95266.31;1043154;28;20059;-67
2021/05/12 00:17:54;;;;;;;5.72;4.57;;;;;;;8.85;100.00;95272.06;1043161;28;20033;-67
2021/05/12 00:18:27;;;;;;;4.38;3.78;;;;;;;8.82;100.00;95259.50;1043219;28;20652;-66
2021/05/12 00:18:57;;;;;;;4.80;4.30;;;;;;;8.84;100.00;95262.66;1045018;28;20708;-67
2021/05/12 00:19:29;;;;;;;4.53;3.97;;;;;;;8.85;100.00;95266.84;1043864;28;20268;-67
2021/05/12 00:20:00;;;;;;;4.78;3.70;;;;;;;8.84;100.00;95267.88;1046855;28;20133;-67
2021/05/12 00:20:31;;;;;;;4.85;3.85;;;;;;;8.82;100.00;95269.97;1047120;28;20303;-67
2021/05/12 00:21:03;;;;;;;4.30;3.55;;;;;;;8.82;100.00;95269.97;1047563;28;20779;-67
2021/05/12 00:21:41;;;;;;;3.70;3.40;;;;;;;8.83;100.00;95271.56;1046765;28;20082;-66
2021/05/12 00:22:29;;;;;;;3.40;3.10;;;;;;;8.83;100.00;95276.78;1041952;28;20824;-66
2021/05/12 00:23:10;;;;;;;4.32;3.08;;;;;;;8.81;100.00;95273.63;1042993;28;20264;-68
2021/05/12 00:23:48;;;;;;;5.40;3.58;;;;;;;8.83;100.00;95276.78;1047262;28;20302;-68
2021/05/12 00:24:18;;;;;;;4.20;3.30;;;;;;;8.81;100.00;95273.63;1042726;28;20032;-66
2021/05/12 00:24:49;;;;;;;2.38;2.22;;;;;;;8.81;100.00;95269.19;1040061;28;20271;-67
2021/05/12 00:25:19;;;;;;;3.78;3.45;;;;;;;8.81;100.00;95268.41;1035286;28;20034;-68
2021/05/12 00:25:50;;;;;;;4.45;3.60;;;;;;;8.82;100.00;95267.34;1041441;28;20037;-67
2021/05/12 00:26:20;;;;;;;4.15;3.75;;;;;;;8.80;100.00;95270.25;1047015;28;20482;-67
2021/05/12 00:26:53;;;;;;;4.47;4.07;;;;;;;8.80;100.00;95270.25;1037773;28;20550;-68
2021/05/12 00:27:23;;;;;;;4.38;3.95;;;;;;;8.82;100.00;95280.44;1036478;28;20265;-68
2021/05/12 00:27:56;;;;;;;5.15;3.95;;;;;;;8.83;100.00;95276.78;1043185;28;20029;-65
2021/05/12 00:28:26;;;;;;;3.65;3.25;;;;;;;8.69;100.00;95255.59;1039554;28;20032;-68
2021/05/12 00:28:56;;;;;;;3.40;3.10;;;;;;;8.86;100.00;95276.28;1042809;28;20279;-66
2021/05/12 00:29:27;;;;;;;3.90;3.50;;;;;;;8.83;100.00;95279.41;1043088;28;20025;-66
2021/05/12 00:30:00;;;;;;;3.72;3.38;;;;;;;8.83;100.00;95274.19;1039175;28;20041;-67
2021/05/12 00:30:31;;;;;;;3.53;3.22;;;;;;;8.79;100.00;95276.53;1043359;28;20256;-64
2021/05/12 00:31:01;;;;;;;3.22;2.88;;;;;;;8.81;100.00;95277.03;1046983;28;20025;-65
2021/05/12 00:31:32;;;;;;;4.60;3.67;;;;;;;8.71;100.00;95254.28;1047819;28;20032;-66
2021/05/12 00:32:03;;;;;;;5.88;3.70;;;;;;;8.81;100.00;95273.63;1038641;28;20121;-67
2021/05/12 00:32:33;;;;;;;3.55;3.25;;;;;;;8.79;100.00;95283.59;1038746;28;20037;-66
2021/05/12 00:33:04;;;;;;;4.18;3.13;;;;;;;8.81;100.00;95273.63;1034695;28;20030;-65
2021/05/12 00:33:34;;;;;;;3.25;3.00;;;;;;;8.80;100.00;95272.09;1034789;28;20026;-67
2021/05/12 00:34:06;;;;;;;3.78;3.03;;;;;;;8.78;100.00;95274.94;1047013;28;20033;-65
2021/05/12 00:34:36;;;;;;;3.58;3.10;;;;;;;8.79;100.00;95273.13;1043015;28;20505;-67
2021/05/12 00:35:08;;;;;;;3.60;3.30;;;;;;;8.80;100.00;95287.78;1041027;28;20263;-68
2021/05/12 00:35:38;;;;;;;4.47;3.17;;;;;;;8.78;100.00;95274.16;1038926;28;20099;-67
2021/05/12 00:36:09;;;;;;;3.10;2.80;;;;;;;8.80;100.00;95282.53;1035018;28;20277;-66
2021/05/12 00:36:39;;;;;;;2.78;2.58;;;;;;;8.78;100.00;95284.63;1038870;28;20494;-66
2021/05/12 00:37:11;;;;;;;2.70;2.50;;;;;;;8.70;100.00;95273.66;1038785;28;20029;-66
2021/05/12 00:37:41;;;;;;;2.42;2.25;;;;;;;8.78;100.00;95284.63;1043188;28;20021;-67
2021/05/12 00:38:12;;;;;;;2.75;2.55;;;;;;;8.79;100.00;95286.22;1047039;28;20275;-67
2021/05/12 00:38:42;;;;;;;3.42;3.13;;;;;;;8.80;100.00;95285.94;1044317;28;21270;-66
2021/05/12 00:39:12;;;;;;;3.83;3.42;;;;;;;8.80;100.00;95287.78;1043797;28;20103;-67
2021/05/12 00:39:43;;;;;;;3.30;3.00;;;;;;;8.80;100.00;95282.53;1045561;28;20036;-67
2021/05/12 00:40:17;;;;;;;3.92;3.05;;;;;;;8.82;100.00;95285.66;1049843;28;20156;-66
2021/05/12 00:40:47;;;;;;;3.45;3.15;;;;;;;8.71;100.00;95269.97;1051190;28;20027;-66
2021/05/12 00:41:17;;;;;;;2.80;2.60;;;;;;;8.76;100.00;95282.28;1047116;28;20273;-66
2021/05/12 00:41:48;;;;;;;3.25;2.60;;;;;;;8.77;100.00;95277.84;1046995;28;20020;-65
2021/05/12 00:42:19;;;;;;;2.80;2.60;;;;;;;8.73;100.00;95273.13;1046792;28;20028;-67
2021/05/12 00:42:49;;;;;;;3.05;2.80;;;;;;;8.79;100.00;95278.38;1034614;28;20026;-66
2021/05/12 00:43:23;;;;;;;3.03;2.60;;;;;;;8.82;100.00;95280.44;1030970;28;20029;-66
2021/05/12 00:43:53;;;;;;;2.80;2.60;;;;;;;8.81;100.00;95278.88;1030953;28;20041;-66
2021/05/12 00:44:24;;;;;;;3.85;2.50;;;;;;;8.81;100.00;95279.66;1031857;28;20352;-66
2021/05/12 00:44:54;;;;;;;3.03;2.67;;;;;;;8.80;100.00;95282.53;1035863;28;20041;-65
2021/05/12 00:45:25;;;;;;;3.03;2.72;;;;;;;8.82;100.00;95283.06;1036164;28;20041;-66
2021/05/12 00:45:55;;;;;;;2.75;2.55;;;;;;;8.83;100.00;95287.25;1035087;28;20025;-66
2021/05/12 00:46:26;;;;;;;2.50;2.30;;;;;;;8.81;100.00;95290.13;1043196;28;20502;-65
2021/05/12 00:47:02;;;;;;;3.13;2.40;;;;;;;8.77;100.00;95281.22;1046745;28;20517;-66
2021/05/12 00:47:33;;;;;;;3.47;2.63;;;;;;;8.82;100.00;95283.06;1038935;28;20111;-67
2021/05/12 00:48:13;;;;;;;2.88;2.60;;;;;;;8.82;100.00;95285.66;1034505;28;20360;-68
2021/05/12 00:48:43;;;;;;;2.40;2.20;;;;;;;8.71;100.00;95277.81;1033649;28;20280;-67
2021/05/12 00:49:14;;;;;;;3.22;2.92;;;;;;;8.77;100.00;95283.84;1039476;28;20554;-67
2021/05/12 00:49:45;;;;;;;3.03;2.50;;;;;;;8.80;100.00;95287.78;1036760;28;20025;-65
2021/05/12 00:50:20;;;;;;;2.95;2.55;;;;;;;8.77;100.00;95277.84;1035302;28;20802;-64
2021/05/12 00:50:51;;;;;;;3.53;2.90;;;;;;;8.78;100.00;95282.78;1038606;28;20269;-66
2021/05/12 00:51:22;;;;;;;6.35;2.95;;;;;;;8.80;100.00;95277.31;1039504;28;20634;-67
2021/05/12 00:51:52;;;;;;;2.75;2.55;;;;;;;8.80;100.00;95275.47;1043145;28;20656;-67
2021/05/12 00:52:23;;;;;;;2.15;2.00;;;;;;;8.78;100.00;95274.16;1042698;28;20021;-66
2021/05/12 00:52:53;;;;;;;2.45;2.25;;;;;;;8.80;100.00;95279.94;1037520;28;20033;-66
2021/05/12 00:53:24;;;;;;;2.50;2.30;;;;;;;8.77;100.00;95276.00;1034960;28;20555;-66
2021/05/12 00:53:54;;;;;;;2.67;2.47;;;;;;;8.77;100.00;95280.44;1040115;28;20033;-66
2021/05/12 00:54:24;;;;;;;2.10;2.00;;;;;;;8.73;100.00;95273.13;1039123;28;20021;-65
2021/05/12 00:54:55;;;;;;;3.17;2.78;;;;;;;8.77;100.00;95283.84;1038890;28;20018;-67
2021/05/12 00:55:25;;;;;;;2.22;2.00;;;;;;;8.73;100.00;95273.13;1037833;28;20105;-65
2021/05/12 00:55:56;;;;;;;2.42;2.22;;;;;;;8.74;100.00;95279.91;1042776;28;20525;-66
2021/05/12 00:56:26;;;;;;;4.32;2.13;;;;;;;8.74;100.00;95274.69;1034682;28;20678;-67
2021/05/12 00:56:57;;;;;;;2.63;2.15;;;;;;;8.77;100.00;95272.59;1034883;28;20808;-66
2021/05/12 00:57:27;;;;;;;2.35;2.15;;;;;;;8.76;100.00;95278.88;1037029;28;20469;-67
2021/05/12 00:57:58;;;;;;;2.72;2.53;;;;;;;8.77;100.00;95283.84;1039035;28;20029;-68
2021/05/12 00:58:29;;;;;;;2.80;2.40;;;;;;;8.76;100.00;95276.28;1042902;28;20033;-67
2021/05/12 00:58:59;;;;;;;2.40;2.20;;;;;;;8.79;100.00;95278.38;1047245;28;20069;-67
2021/05/12 00:59:34;;;;;;;3.13;2.83;;;;;;;8.79;100.00;95286.22;1042731;28;20083;-67
2021/05/12 01:00:10;;;;;;;3.28;2.97;;;;;;;8.81;100.00;95273.63;1043135;28;20060;-65
2021/05/12 01:00:43;;;;;;;2.10;1.98;;;;;;;8.78;100.00;95274.94;1039139;28;20252;-68
2021/05/12 01:01:14;;;;;;;2.30;2.10;;;;;;;8.76;100.00;95276.28;1042513;28;20272;-66
2021/05/12 01:01:44;;;;;;;3.17;2.88;;;;;;;8.77;100.00;95275.22;1040656;28;20636;-66
2021/05/12 01:02:15;;;;;;;3.17;2.58;;;;;;;8.76;100.00;95271.81;1040261;28;20021;-66
2021/05/12 01:02:46;;;;;;;3.25;2.92;;;;;;;8.77;100.00;95277.84;1043139;28;20059;-66
2021/05/12 01:03:16;;;;;;;2.80;2.42;;;;;;;8.76;100.00;95276.28;1042592;28;20039;-65
2021/05/12 01:03:47;;;;;;;2.67;2.42;;;;;;;8.76;100.00;95276.28;1038556;28;20033;-66
2021/05/12 01:04:17;;;;;;;2.92;2.63;;;;;;;8.77;100.00;95278.63;1043271;28;20056;-67
2021/05/12 01:04:48;;;;;;;3.10;2.85;;;;;;;8.76;100.00;95271.81;1043030;28;20471;-66
2021/05/12 01:05:34;;;;;;;4.10;2.30;;;;;;;8.74;100.00;95273.91;1036059;28;20048;-66
2021/05/12 01:06:25;;;;;;;3.40;2.60;;;;;;;8.76;100.00;95282.28;1038888;28;20040;-65
2021/05/12 01:06:55;;;;;;;2.17;2.08;;;;;;;8.76;100.00;95276.28;1040373;28;20415;-66
2021/05/12 01:07:26;;;;;;;3.78;2.92;;;;;;;8.78;100.00;95274.94;1046970;28;20775;-65
2021/05/12 01:07:57;;;;;;;3.20;2.90;;;;;;;8.78;100.00;95279.41;1044468;28;20056;-67
2021/05/12 01:08:28;;;;;;;4.07;2.50;;;;;;;8.71;100.00;95266.56;1051278;28;20030;-66
2021/05/12 01:08:58;;;;;;;3.15;2.88;;;;;;;8.76;100.00;95284.13;1046443;28;20040;-66
2021/05/12 01:09:29;;;;;;;3.20;2.95;;;;;;;8.74;100.00;95273.91;1038740;28;20654;-67
2021/05/12 01:09:59;;;;;;;4.57;3.13;;;;;;;8.77;100.00;95280.44;1038792;28;20037;-66
2021/05/12 01:10:31;;;;;;;2.90;2.70;;;;;;;8.76;100.00;95281.50;1034547;28;20069;-67
2021/05/12 01:11:02;;;;;;;3.67;2.83;;;;;;;8.76;100.00;95276.28;1039200;28;20112;-67
2021/05/12 01:11:32;;;;;;;3.50;3.20;;;;;;;8.77;100.00;95277.84;1043239;28;20807;-67
2021/05/12 01:12:03;;;;;;;3.53;3.10;;;;;;;8.77;100.00;95273.38;1042515;28;20025;-67
2021/05/12 01:12:34;;;;;;;3.55;3.05;;;;;;;8.79;100.00;95273.13;1043006;28;20025;-65
2021/05/12 01:13:04;;;;;;;3.08;2.75;;;;;;;8.78;100.00;95274.16;1038898;28;20029;-66
2021/05/12 01:13:35;;;;;;;3.97;3.22;;;;;;;8.78;100.00;95274.16;1030878;28;20030;-66
2021/05/12 01:14:05;;;;;;;3.35;3.05;;;;;;;8.81;100.00;95271.81;1041994;28;20033;-65
2021/05/12 01:14:39;;;;;;;3.47;3.15;;;;;;;8.78;100.00;95274.94;1038873;28;20030;-67
2021/05/12 01:15:10;;;;;;;3.13;2.83;;;;;;;8.77;100.00;95267.38;1038624;28;20037;-66
2021/05/12 01:15:41;;;;;;;4.45;2.95;;;;;;;8.75;100.00;95267.63;1041959;28;20321;-67
2021/05/12 01:16:11;;;;;;;3.30;2.83;;;;;;;8.75;100.00;95265.00;1039255;28;20329;-67
2021/05/12 01:16:45;;;;;;;2.63;2.40;;;;;;;8.74;100.00;95264.22;1047454;28;20016;-66
2021/05/12 01:17:16;;;;;;;2.80;2.60;;;;;;;8.73;100.00;95262.66;1048196;28;20150;-66
2021/05/12 01:17:47;;;;;;;2.70;2.47;;;;;;;8.77;100.00;95262.13;1047146;28;20259;-67
2021/05/12 01:18:23;;;;;;;2.45;2.25;;;;;;;8.70;100.00;95257.94;1042071;28;20671;-66
2021/05/12 01:18:53;;;;;;;3.20;2.85;;;;;;;8.76;100.00;95271.03;1039262;28;20025;-67
2021/05/12 01:19:27;;;;;;;3.38;3.08;;;;;;;8.77;100.00;95264.75;1042465;28;21099;-66
2021/05/12 01:19:58;;;;;;;4.25;3.08;;;;;;;8.76;100.00;95260.56;1045675;28;20524;-66
2021/05/12 01:20:28;;;;;;;4.10;3.08;;;;;;;8.78;100.00;95261.09;1041853;28;20279;-65
2021/05/12 01:21:00;;;;;;;3.33;3.03;;;;;;;8.77;100.00;95259.53;1039335;28;20017;-66
2021/05/12 01:21:31;;;;;;;4.82;3.50;;;;;;;8.76;100.00;95260.56;1042945;28;20021;-67
2021/05/12 01:22:01;;;;;;;3.10;2.65;;;;;;;8.74;100.00;95261.59;1043679;28;20314;-67
2021/05/12 01:22:31;;;;;;;3.17;2.90;;;;;;;8.74;100.00;95264.22;1046757;28;20359;-66
2021/05/12 01:23:02;;;;;;;2.85;2.65;;;;;;;8.73;100.00;95261.88;1051473;28;20016;-65
2021/05/12 01:23:38;;;;;;;3.35;3.05;;;;;;;8.70;100.00;95257.94;1050774;28;20138;-66
2021/05/12 01:24:08;;;;;;;2.90;2.70;;;;;;;8.72;100.00;95261.09;1041141;28;20417;-66
2021/05/12 01:24:39;;;;;;;3.10;2.80;;;;;;;8.71;100.00;95254.28;1038069;28;20309;-66
2021/05/12 01:25:10;;;;;;;2.60;2.40;;;;;;;8.61;100.00;95250.88;1030071;28;20074;-67
2021/05/12 01:25:44;;;;;;;3.20;2.83;;;;;;;8.72;100.00;95266.34;1030722;28;20483;-66
2021/05/12 01:26:19;;;;;;;2.50;2.30;;;;;;;8.62;100.00;95250.63;1034762;28;20261;-66
2021/05/12 01:26:50;;;;;;;2.70;2.50;;;;;;;8.71;100.00;95261.34;1034692;28;20792;-65
2021/05/12 01:27:20;;;;;;;3.10;2.78;;;;;;;8.71;100.00;95262.13;1033902;28;20269;-65
2021/05/12 01:27:51;;;;;;;2.63;2.40;;;;;;;8.70;100.00;95262.41;1038642;28;20519;-66
2021/05/12 01:28:27;;;;;;;3.22;2.75;;;;;;;8.69;100.00;95253.00;1035202;28;20029;-68
2021/05/12 01:28:57;;;;;;;4.30;3.22;;;;;;;8.73;100.00;95257.44;1043605;28;20025;-67
2021/05/12 01:29:30;;;;;;;3.30;2.45;;;;;;;8.70;100.00;95255.34;1042644;28;20715;-66
2021/05/12 01:30:04;;;;;;;3.20;2.90;;;;;;;8.71;100.00;95250.88;1034800;28;20359;-65
2021/05/12 01:30:34;;;;;;;3.78;3.47;;;;;;;8.74;100.00;95264.22;1031865;28;20022;-66
2021/05/12 01:31:09;;;;;;;4.65;3.35;;;;;;;8.76;100.00;95255.34;1032771;28;20852;-66
2021/05/12 01:31:43;;;;;;;2.63;2.42;;;;;;;8.71;100.00;95264.75;1032986;28;20041;-66
2021/05/12 01:32:14;;;;;;;3.03;2.80;;;;;;;8.70;100.00;95260.56;1044566;28;20314;-67
2021/05/12 01:32:44;;;;;;;4.85;2.90;;;;;;;8.70;100.00;95265.78;1050206;28;20320;-67
2021/05/12 01:33:15;;;;;;;5.30;3.13;;;;;;;8.71;100.00;95258.72;1047733;28;20028;-67
2021/05/12 01:33:45;;;;;;;3.92;3.40;;;;;;;8.69;100.00;95256.38;1046894;28;20719;-66
2021/05/12 01:34:17;;;;;;;3.42;2.85;;;;;;;8.71;100.00;95262.13;1040348;28;20113;-66
2021/05/12 01:34:47;;;;;;;3.15;2.90;;;;;;;8.68;100.00;95257.41;1039112;28;20025;-67
2021/05/12 01:35:18;;;;;;;4.43;3.50;;;;;;;8.67;100.00;95258.47;1046518;28;20930;-68
2021/05/12 01:35:48;;;;;;;3.95;3.08;;;;;;;8.68;100.00;95259.25;1042425;28;20486;-67
2021/05/12 01:36:19;;;;;;;3.72;3.00;;;;;;;8.66;100.00;95256.13;1042099;28;20467;-66
2021/05/12 01:36:50;;;;;;;4.07;3.30;;;;;;;8.62;100.00;95249.88;1038883;28;20808;-68
2021/05/12 01:37:21;;;;;;;3.55;3.25;;;;;;;8.67;100.00;95258.47;1038748;28;20119;-67
2021/05/12 01:37:51;;;;;;;3.55;3.25;;;;;;;8.65;100.00;95260.59;1044358;28;20589;-67
2021/05/12 01:38:22;;;;;;;3.85;3.45;;;;;;;8.68;100.00;95262.66;1046728;28;20070;-64
2021/05/12 01:38:53;;;;;;;3.50;3.20;;;;;;;8.68;100.00;95262.66;1038652;28;20044;-68
2021/05/12 01:39:23;;;;;;;8.25;3.40;;;;;;;8.74;100.00;95253.75;1038842;28;20033;-66
2021/05/12 01:39:53;;;;;;;8.18;3.90;;;;;;;8.73;100.00;95257.44;1034736;28;20033;-68
2021/05/12 01:40:24;;;;;;;3.70;2.80;;;;;;;8.71;100.00;95254.28;1046809;28;20037;-66
2021/05/12 01:40:54;;;;;;;4.13;3.50;;;;;;;8.72;100.00;95255.88;1039845;28;20049;-65
2021/05/12 01:41:26;;;;;;;3.58;2.83;;;;;;;8.61;100.00;95238.59;1038688;28;20056;-66
2021/05/12 01:41:56;;;;;;;2.67;2.47;;;;;;;8.68;100.00;95256.63;1043091;28;20040;-65
2021/05/12 01:42:27;;;;;;;3.97;3.08;;;;;;;8.67;100.00;95255.84;1040858;28;21050;-67
2021/05/12 01:42:57;;;;;;;3.85;2.75;;;;;;;8.68;100.00;95257.41;1039449;28;20033;-67
2021/05/12 01:43:29;;;;;;;3.75;2.97;;;;;;;8.68;100.00;95252.19;1055272;28;20038;-67
2021/05/12 01:44:00;;;;;;;3.20;2.90;;;;;;;8.68;100.00;95254.81;1052008;28;20028;-67
2021/05/12 01:44:31;;;;;;;4.47;2.90;;;;;;;8.70;100.00;95254.56;1048877;28;20277;-67
2021/05/12 01:45:08;;;;;;;4.25;3.47;;;;;;;8.69;100.00;95250.38;1042261;28;20295;-65
2021/05/12 01:45:38;;;;;;;3.70;2.88;;;;;;;8.68;100.00;95260.03;1040542;28;20537;-65
2021/05/12 01:46:09;;;;;;;3.97;2.80;;;;;;;8.62;100.00;95240.19;1042677;28;20290;-66
2021/05/12 01:46:44;;;;;;;2.85;2.63;;;;;;;8.69;100.00;95251.16;1042953;28;20021;-67
2021/05/12 01:47:17;;;;;;;2.63;2.42;;;;;;;8.70;100.00;95246.72;1036748;28;20025;-66
2021/05/12 01:47:48;;;;;;;4.28;3.15;;;;;;;8.70;100.00;95251.94;1038704;28;20259;-66
2021/05/12 01:48:21;;;;;;;2.60;2.40;;;;;;;8.69;100.00;95256.38;1038659;28;20052;-66
2021/05/12 01:48:55;;;;;;;3.50;3.20;;;;;;;8.70;100.00;95247.50;1043263;28;20037;-68
2021/05/12 01:49:29;;;;;;;4.68;3.42;;;;;;;8.71;100.00;95254.28;1050805;28;20616;-66
2021/05/12 01:50:03;;;;;;;3.35;3.05;;;;;;;8.71;100.00;95254.28;1043974;28;20029;-65
2021/05/12 01:50:34;;;;;;;4.28;3.50;;;;;;;8.71;100.00;95263.97;1048921;28;20336;-68
2021/05/12 01:51:07;;;;;;;4.05;3.10;;;;;;;8.70;100.00;95262.41;1046600;28;20278;-65
2021/05/12 01:51:38;;;;;;;4.10;3.10;;;;;;;8.71;100.00;95263.97;1038195;28;20419;-66
2021/05/12 01:52:08;;;;;;;4.10;2.78;;;;;;;8.73;100.00;95267.13;1044970;28;20033;-67
2021/05/12 01:52:47;;;;;;;3.63;3.28;;;;;;;8.66;100.00;95256.91;1046952;28;20032;-66
2021/05/12 01:53:17;;;;;;;2.58;2.38;;;;;;;8.71;100.00;95256.91;1046969;28;20033;-66
2021/05/12 01:53:48;;;;;;;4.22;2.47;;;;;;;8.73;100.00;95259.25;1050169;28;20357;-67
2021/05/12 01:54:21;;;;;;;2.28;2.13;;;;;;;8.73;100.00;95270.50;1049971;28;20032;-66
2021/05/12 01:54:54;;;;;;;2.72;2.53;;;;;;;8.66;100.00;95254.28;1044167;28;20037;-66
2021/05/12 01:55:25;;;;;;;3.00;2.70;;;;;;;8.69;100.00;95248.53;1043274;28;20618;-65
2021/05/12 01:55:55;;;;;;;2.40;2.20;;;;;;;8.70;100.00;95249.31;1041737;28;20716;-67
2021/05/12 01:56:26;;;;;;;6.80;2.20;;;;;;;8.74;100.00;95252.97;1038451;28;20463;-66
2021/05/12 01:56:56;;;;;;;2.53;2.33;;;;;;;8.73;100.00;95252.19;1038475;28;20025;-66
2021/05/12 01:57:26;;;;;;;2.92;2.50;;;;;;;8.74;100.00;95250.38;1043150;28;20033;-66
2021/05/12 01:58:00;;;;;;;3.35;2.50;;;;;;;8.78;100.00;95253.22;1051802;28;20028;-66
2021/05/12 01:58:30;;;;;;;3.05;2.25;;;;;;;8.74;100.00;95253.75;1048020;28;20290;-66
2021/05/12 01:59:01;;;;;;;3.20;2.90;;;;;;;8.77;100.00;95249.06;1042338;28;20024;-67
2021/05/12 01:59:32;;;;;;;2.40;2.22;;;;;;;8.76;100.00;95255.34;1046688;28;20509;-66
2021/05/12 02:00:16;;;;;;;2.53;2.30;;;;;;;8.74;100.00;95251.13;1041972;28;20096;-66
2021/05/12 02:00:48;;;;;;;3.03;2.20;;;;;;;8.75;100.00;95254.53;1036007;28;20718;-66
2021/05/12 02:01:21;;;;;;;2.70;2.25;;;;;;;8.76;100.00;95250.91;1028610;28;20380;-65
2021/05/12 02:01:51;;;;;;;4.22;2.78;;;;;;;8.74;100.00;95253.75;1032838;28;20311;-68
2021/05/12 02:02:25;;;;;;;2.85;2.65;;;;;;;8.76;100.00;95250.13;1031861;28;20296;-67
2021/05/12 02:02:55;;;;;;;2.78;2.58;;;;;;;8.66;100.00;95236.00;1041321;28;20029;-65
2021/05/12 02:03:26;;;;;;;2.70;2.50;;;;;;;8.75;100.00;95254.53;1046373;28;20328;-67
2021/05/12 02:04:06;;;;;;;2.65;2.42;;;;;;;8.72;100.00;95248.03;1038633;28;20033;-64
2021/05/12 02:04:39;;;;;;;3.85;2.95;;;;;;;8.68;100.00;95238.31;1034620;28;20279;-67
2021/05/12 02:05:10;;;;;;;4.18;3.30;;;;;;;8.76;100.00;95244.88;1035192;28;20282;-67
2021/05/12 02:05:44;;;;;;;2.88;2.67;;;;;;;8.74;100.00;95248.53;1044012;28;20279;-65
2021/05/12 02:06:14;;;;;;;3.28;2.97;;;;;;;8.77;100.00;95246.44;1040649;28;20105;-66
2021/05/12 02:06:45;;;;;;;6.50;3.22;;;;;;;8.77;100.00;95247.22;1047601;28;20789;-68
2021/05/12 02:07:15;;;;;;;5.15;2.95;;;;;;;8.78;100.00;95248.00;1051231;28;20600;-66
2021/05/12 02:07:48;;;;;;;2.75;2.55;;;;;;;8.76;100.00;95250.91;1043522;28;20060;-67
2021/05/12 02:08:23;;;;;;;2.88;2.67;;;;;;;8.75;100.00;95244.06;1043731;28;20033;-65
2021/05/12 02:08:53;;;;;;;3.67;3.33;;;;;;;8.73;100.00;95248.81;1039554;28;21040;-66
2021/05/12 02:09:23;;;;;;;3.63;3.08;;;;;;;8.67;100.00;95232.31;1036861;28;20355;-66
2021/05/12 02:09:54;;;;;;;4.20;3.80;;;;;;;8.76;100.00;95247.50;1046475;28;20033;-67
2021/05/12 02:10:25;;;;;;;3.70;3.40;;;;;;;8.71;100.00;95243.81;1039158;28;20025;-67
2021/05/12 02:11:00;;;;;;;4.13;3.10;;;;;;;8.75;100.00;95244.06;1042664;28;20136;-67
2021/05/12 02:11:31;;;;;;;3.22;2.95;;;;;;;8.71;100.00;95245.66;1040069;28;20793;-67
2021/05/12 02:12:01;;;;;;;3.30;3.00;;;;;;;8.69;100.00;95245.94;1037049;28;20316;-68
2021/05/12 02:12:35;;;;;;;4.00;3.60;;;;;;;8.70;100.00;95252.72;1044105;28;20041;-67
2021/05/12 02:13:05;;;;;;;4.05;3.55;;;;;;;8.66;100.00;95236.00;1035419;28;20044;-67
2021/05/12 02:13:36;;;;;;;4.68;3.80;;;;;;;8.74;100.00;95253.75;1039458;28;20272;-66
2021/05/12 02:14:06;;;;;;;3.50;3.10;;;;;;;8.73;100.00;95249.59;1035570;28;20048;-66
2021/05/12 02:14:37;;;;;;;3.78;3.47;;;;;;;8.70;100.00;95246.72;1038811;28;20035;-68
2021/05/12 02:15:13;;;;;;;4.18;3.78;;;;;;;8.70;100.00;95252.72;1051269;28;20035;-67
2021/05/12 02:15:43;;;;;;;4.88;3.80;;;;;;;8.71;100.00;95250.88;1043538;28;20029;-67
2021/05/12 02:16:14;;;;;;;3.90;3.50;;;;;;;8.65;100.00;95233.63;1047272;28;20298;-66
2021/05/12 02:16:48;;;;;;;3.80;3.50;;;;;;;8.70;100.00;95252.72;1043551;28;20449;-67
2021/05/12 02:17:18;;;;;;;4.43;4.03;;;;;;;8.70;100.00;95246.72;1039915;28;20282;-68
2021/05/12 02:17:51;;;;;;;3.92;3.50;;;;;;;8.69;100.00;95245.94;1042946;28;20036;-66
2021/05/12 02:18:22;;;;;;;4.30;3.95;;;;;;;8.70;100.00;95246.72;1036460;28;20033;-67
2021/05/12 02:18:52;;;;;;;6.43;4.45;;;;;;;8.69;100.00;95245.94;1035780;28;20280;-67
2021/05/12 02:19:22;;;;;;;4.93;4.43;;;;;;;8.69;100.00;95245.94;1039594;28;20030;-67
2021/05/12 02:19:54;;;;;;;4.60;4.20;;;;;;;8.65;100.00;95241.47;1043587;28;20858;-66
2021/05/12 02:20:31;;;;;;;5.97;5.03;;;;;;;8.66;100.00;95240.44;1039591;28;20033;-68
2021/05/12 02:21:02;;;;;;;4.65;4.15;;;;;;;8.66;100.00;95240.44;1043587;28;20271;-67
2021/05/12 02:21:32;;;;;;;6.45;5.18;;;;;;;8.68;100.00;95243.56;1038880;28;20789;-67
2021/05/12 02:22:03;;;;;;;5.07;3.85;;;;;;;8.66;100.00;95246.44;1041915;28;20104;-67
2021/05/12 02:22:33;;;;;;;5.05;4.55;;;;;;;8.66;100.00;95246.44;1047203;28;20399;-67
2021/05/12 02:23:06;;;;;;;5.63;4.22;;;;;;;8.60;100.00;95231.81;1045760;28;20049;-67
2021/05/12 02:23:39;;;;;;;4.75;4.13;;;;;;;8.65;100.00;95242.28;1043517;28;20024;-68
2021/05/12 02:24:10;;;;;;;4.68;4.22;;;;;;;8.68;100.00;95241.72;1039346;28;20276;-66
2021/05/12 02:24:40;;;;;;;4.15;3.80;;;;;;;8.67;100.00;95245.41;1034272;28;20276;-63
2021/05/12 02:25:10;;;;;;;4.30;3.90;;;;;;;8.63;100.00;95241.75;1035608;28;20041;-65
2021/05/12 02:25:41;;;;;;;5.00;4.05;;;;;;;8.66;100.00;95243.06;1043264;28;20036;-66
2021/05/12 02:26:12;;;;;;;4.25;3.90;;;;;;;8.70;100.00;95239.63;1043296;28;20072;-65
2021/05/12 02:26:42;;;;;;;3.67;3.38;;;;;;;8.67;100.00;95242.78;1047823;28;20135;-66
2021/05/12 02:27:12;;;;;;;4.40;4.00;;;;;;;8.69;100.00;95251.16;1047557;28;20382;-65
2021/05/12 02:27:43;;;;;;;4.00;3.60;;;;;;;8.68;100.00;95244.34;1047953;28;20032;-63
2021/05/12 02:28:14;;;;;;;4.35;3.95;;;;;;;8.68;100.00;95239.09;1052088;28;20028;-67
2021/05/12 02:28:44;;;;;;;3.90;3.60;;;;;;;8.68;100.00;95240.94;1051959;28;20032;-67
2021/05/12 02:29:14;;;;;;;4.22;3.90;;;;;;;8.68;100.00;95236.50;1051945;28;20027;-65